sensor_id;sensor_type;location;lat;lon;timestamp;P1;durP1;ratioP1;P2;durP2;ratioP2
26375;SDS011;30544;42.196;24.336;2023-04-15T00:00:41;7.35;;;4.25;;
26375;SDS011;30544;42.196;24.336;2023-04-15T00:03:07;7.00;;;4.13;;
26375;SDS011;30544;42.196;24.336;2023-04-15T00:05:34;6.72;;;4.40;;
26375;SDS011;30544;42.196;24.336;2023-04-15T00:08:04;6.93;;;3.58;;
26375;SDS011;30544;42.196;24.336;2023-04-15T00:10:32;6.18;;;3.75;;
26375;SDS011;30544;42.196;24.336;2023-04-15T00:12:59;7.88;;;4.40;;
26375;SDS011;30544;42.196;24.336;2023-04-15T00:15:28;7.60;;;4.45;;
26375;SDS011;30544;42.196;24.336;2023-04-15T00:17:55;8.15;;;4.50;;
26375;SDS011;30544;42.196;24.336;2023-04-15T00:20:21;15.90;;;5.15;;
26375;SDS011;30544;42.196;24.336;2023-04-15T00:22:48;9.65;;;5.18;;
26375;SDS011;30544;42.196;24.336;2023-04-15T00:25:15;8.63;;;6.68;;
26375;SDS011;30544;42.196;24.336;2023-04-15T00:27:42;8.23;;;5.55;;
26375;SDS011;30544;42.196;24.336;2023-04-15T00:30:09;12.40;;;6.45;;
26375;SDS011;30544;42.196;24.336;2023-04-15T00:32:38;12.23;;;7.35;;
26375;SDS011;30544;42.196;24.336;2023-04-15T00:35:06;9.05;;;5.90;;
26375;SDS011;30544;42.196;24.336;2023-04-15T00:37:34;9.02;;;5.57;;
26375;SDS011;30544;42.196;24.336;2023-04-15T00:40:01;12.20;;;6.15;;
26375;SDS011;30544;42.196;24.336;2023-04-15T00:42:29;8.45;;;5.13;;
26375;SDS011;30544;42.196;24.336;2023-04-15T00:44:57;8.48;;;5.05;;
26375;SDS011;30544;42.196;24.336;2023-04-15T00:47:24;10.10;;;5.53;;
26375;SDS011;30544;42.196;24.336;2023-04-15T00:49:54;12.02;;;6.10;;
26375;SDS011;30544;42.196;24.336;2023-04-15T00:52:20;13.05;;;7.22;;
26375;SDS011;30544;42.196;24.336;2023-04-15T00:54:47;12.55;;;5.57;;
26375;SDS011;30544;42.196;24.336;2023-04-15T00:57:15;8.93;;;5.97;;
26375;SDS011;30544;42.196;24.336;2023-04-15T00:59:42;9.02;;;5.65;;
26375;SDS011;30544;42.196;24.336;2023-04-15T01:02:08;11.60;;;5.45;;
26375;SDS011;30544;42.196;24.336;2023-04-15T01:04:35;8.77;;;5.35;;
26375;SDS011;30544;42.196;24.336;2023-04-15T01:07:04;9.48;;;5.13;;
26375;SDS011;30544;42.196;24.336;2023-04-15T01:09:31;8.35;;;5.05;;
26375;SDS011;30544;42.196;24.336;2023-04-15T01:11:58;8.32;;;4.57;;
26375;SDS011;30544;42.196;24.336;2023-04-15T01:14:24;7.82;;;5.18;;
26375;SDS011;30544;42.196;24.336;2023-04-15T01:16:51;5.63;;;4.43;;
26375;SDS011;30544;42.196;24.336;2023-04-15T01:19:18;9.68;;;4.72;;
26375;SDS011;30544;42.196;24.336;2023-04-15T01:21:45;6.28;;;4.30;;
26375;SDS011;30544;42.196;24.336;2023-04-15T01:24:13;6.13;;;3.65;;
26375;SDS011;30544;42.196;24.336;2023-04-15T01:26:45;11.45;;;5.30;;
26375;SDS011;30544;42.196;24.336;2023-04-15T01:29:13;6.93;;;4.15;;
26375;SDS011;30544;42.196;24.336;2023-04-15T01:31:43;8.20;;;4.20;;
26375;SDS011;30544;42.196;24.336;2023-04-15T01:34:16;10.52;;;4.53;;
26375;SDS011;30544;42.196;24.336;2023-04-15T01:36:42;8.10;;;4.38;;
26375;SDS011;30544;42.196;24.336;2023-04-15T01:39:09;7.40;;;4.10;;
26375;SDS011;30544;42.196;24.336;2023-04-15T01:41:36;10.75;;;3.65;;
26375;SDS011;30544;42.196;24.336;2023-04-15T01:44:05;8.35;;;3.92;;
26375;SDS011;30544;42.196;24.336;2023-04-15T01:46:32;7.13;;;4.05;;
26375;SDS011;30544;42.196;24.336;2023-04-15T01:48:59;12.30;;;8.32;;
26375;SDS011;30544;42.196;24.336;2023-04-15T01:51:26;7.68;;;4.00;;
26375;SDS011;30544;42.196;24.336;2023-04-15T01:53:53;9.93;;;4.30;;
26375;SDS011;30544;42.196;24.336;2023-04-15T01:56:21;15.35;;;7.47;;
26375;SDS011;30544;42.196;24.336;2023-04-15T01:58:48;14.50;;;7.97;;
26375;SDS011;30544;42.196;24.336;2023-04-15T02:01:16;10.98;;;5.72;;
26375;SDS011;30544;42.196;24.336;2023-04-15T02:03:44;9.63;;;5.18;;
26375;SDS011;30544;42.196;24.336;2023-04-15T02:06:11;6.85;;;4.50;;
26375;SDS011;30544;42.196;24.336;2023-04-15T02:08:38;7.25;;;4.20;;
26375;SDS011;30544;42.196;24.336;2023-04-15T02:11:05;8.57;;;4.13;;
26375;SDS011;30544;42.196;24.336;2023-04-15T02:13:32;9.80;;;5.50;;
26375;SDS011;30544;42.196;24.336;2023-04-15T02:15:59;9.15;;;5.95;;
26375;SDS011;30544;42.196;24.336;2023-04-15T02:18:27;9.07;;;6.38;;
26375;SDS011;30544;42.196;24.336;2023-04-15T02:20:53;8.98;;;5.35;;
26375;SDS011;30544;42.196;24.336;2023-04-15T02:23:21;9.98;;;4.85;;
26375;SDS011;30544;42.196;24.336;2023-04-15T02:25:48;7.45;;;4.65;;
26375;SDS011;30544;42.196;24.336;2023-04-15T02:28:15;9.00;;;4.05;;
26375;SDS011;30544;42.196;24.336;2023-04-15T02:30:41;8.52;;;4.35;;
26375;SDS011;30544;42.196;24.336;2023-04-15T02:33:08;7.18;;;4.72;;
26375;SDS011;30544;42.196;24.336;2023-04-15T02:35:36;8.32;;;4.40;;
26375;SDS011;30544;42.196;24.336;2023-04-15T02:38:06;8.60;;;5.13;;
26375;SDS011;30544;42.196;24.336;2023-04-15T02:40:33;18.45;;;10.45;;
26375;SDS011;30544;42.196;24.336;2023-04-15T02:43:00;7.78;;;5.53;;
26375;SDS011;30544;42.196;24.336;2023-04-15T02:45:26;9.80;;;6.32;;
26375;SDS011;30544;42.196;24.336;2023-04-15T02:47:53;7.68;;;4.68;;
26375;SDS011;30544;42.196;24.336;2023-04-15T02:50:20;10.43;;;4.72;;
26375;SDS011;30544;42.196;24.336;2023-04-15T02:52:49;9.23;;;4.10;;
26375;SDS011;30544;42.196;24.336;2023-04-15T02:55:16;14.95;;;6.53;;
26375;SDS011;30544;42.196;24.336;2023-04-15T02:57:43;11.27;;;5.82;;
26375;SDS011;30544;42.196;24.336;2023-04-15T03:00:10;10.93;;;5.45;;
26375;SDS011;30544;42.196;24.336;2023-04-15T03:02:38;9.05;;;5.43;;
26375;SDS011;30544;42.196;24.336;2023-04-15T03:05:09;7.70;;;4.35;;
26375;SDS011;30544;42.196;24.336;2023-04-15T03:07:37;11.43;;;6.05;;
26375;SDS011;30544;42.196;24.336;2023-04-15T03:10:07;8.25;;;3.90;;
26375;SDS011;30544;42.196;24.336;2023-04-15T03:12:34;7.45;;;4.20;;
26375;SDS011;30544;42.196;24.336;2023-04-15T03:15:01;5.68;;;3.75;;
26375;SDS011;30544;42.196;24.336;2023-04-15T03:17:28;8.20;;;4.80;;
26375;SDS011;30544;42.196;24.336;2023-04-15T03:19:55;11.82;;;5.45;;
26375;SDS011;30544;42.196;24.336;2023-04-15T03:22:21;9.82;;;5.28;;
26375;SDS011;30544;42.196;24.336;2023-04-15T03:24:49;12.77;;;4.93;;
26375;SDS011;30544;42.196;24.336;2023-04-15T03:27:17;9.98;;;4.70;;
26375;SDS011;30544;42.196;24.336;2023-04-15T03:29:43;7.07;;;4.53;;
26375;SDS011;30544;42.196;24.336;2023-04-15T03:32:10;7.30;;;4.55;;
26375;SDS011;30544;42.196;24.336;2023-04-15T03:34:39;6.97;;;4.82;;
26375;SDS011;30544;42.196;24.336;2023-04-15T03:37:06;10.73;;;4.18;;
26375;SDS011;30544;42.196;24.336;2023-04-15T03:39:33;9.70;;;3.90;;
26375;SDS011;30544;42.196;24.336;2023-04-15T03:42:00;8.15;;;4.50;;
26375;SDS011;30544;42.196;24.336;2023-04-15T03:44:28;8.52;;;4.20;;
26375;SDS011;30544;42.196;24.336;2023-04-15T03:46:55;7.65;;;4.22;;
26375;SDS011;30544;42.196;24.336;2023-04-15T03:49:22;7.28;;;4.00;;
26375;SDS011;30544;42.196;24.336;2023-04-15T03:51:49;7.75;;;3.80;;
26375;SDS011;30544;42.196;24.336;2023-04-15T03:54:16;9.20;;;4.10;;
26375;SDS011;30544;42.196;24.336;2023-04-15T03:56:43;10.13;;;5.38;;
26375;SDS011;30544;42.196;24.336;2023-04-15T03:59:09;14.60;;;6.43;;
26375;SDS011;30544;42.196;24.336;2023-04-15T04:01:37;10.88;;;5.35;;
26375;SDS011;30544;42.196;24.336;2023-04-15T04:04:04;11.05;;;6.00;;
26375;SDS011;30544;42.196;24.336;2023-04-15T04:06:31;10.05;;;4.82;;
26375;SDS011;30544;42.196;24.336;2023-04-15T04:08:58;11.35;;;5.13;;
26375;SDS011;30544;42.196;24.336;2023-04-15T04:11:25;12.55;;;5.65;;
26375;SDS011;30544;42.196;24.336;2023-04-15T04:13:53;15.63;;;6.38;;
26375;SDS011;30544;42.196;24.336;2023-04-15T04:16:19;12.77;;;6.53;;
26375;SDS011;30544;42.196;24.336;2023-04-15T04:18:47;56.25;;;18.48;;
26375;SDS011;30544;42.196;24.336;2023-04-15T04:21:14;62.17;;;20.98;;
26375;SDS011;30544;42.196;24.336;2023-04-15T04:23:41;59.22;;;21.77;;
26375;SDS011;30544;42.196;24.336;2023-04-15T04:26:08;41.00;;;16.60;;
26375;SDS011;30544;42.196;24.336;2023-04-15T04:28:35;51.92;;;18.60;;
26375;SDS011;30544;42.196;24.336;2023-04-15T04:31:03;28.23;;;14.05;;
26375;SDS011;30544;42.196;24.336;2023-04-15T04:33:30;20.88;;;9.73;;
26375;SDS011;30544;42.196;24.336;2023-04-15T04:35:58;14.25;;;7.65;;
26375;SDS011;30544;42.196;24.336;2023-04-15T04:38:25;24.65;;;11.73;;
26375;SDS011;30544;42.196;24.336;2023-04-15T04:40:52;24.00;;;11.55;;
26375;SDS011;30544;42.196;24.336;2023-04-15T04:43:19;19.25;;;7.32;;
26375;SDS011;30544;42.196;24.336;2023-04-15T04:45:46;71.35;;;22.38;;
26375;SDS011;30544;42.196;24.336;2023-04-15T04:48:13;20.50;;;7.85;;
26375;SDS011;30544;42.196;24.336;2023-04-15T04:50:39;125.05;;;42.97;;
26375;SDS011;30544;42.196;24.336;2023-04-15T04:53:07;82.75;;;30.48;;
26375;SDS011;30544;42.196;24.336;2023-04-15T04:55:34;12.93;;;6.30;;
26375;SDS011;30544;42.196;24.336;2023-04-15T04:58:01;14.20;;;6.53;;
26375;SDS011;30544;42.196;24.336;2023-04-15T05:00:28;16.52;;;7.30;;
26375;SDS011;30544;42.196;24.336;2023-04-15T05:02:55;20.73;;;8.80;;
26375;SDS011;30544;42.196;24.336;2023-04-15T05:05:22;16.70;;;10.50;;
26375;SDS011;30544;42.196;24.336;2023-04-15T05:07:49;26.23;;;10.98;;
26375;SDS011;30544;42.196;24.336;2023-04-15T05:10:17;20.27;;;11.85;;
26375;SDS011;30544;42.196;24.336;2023-04-15T05:12:44;23.30;;;11.98;;
26375;SDS011;30544;42.196;24.336;2023-04-15T05:15:11;21.80;;;10.73;;
26375;SDS011;30544;42.196;24.336;2023-04-15T05:17:38;23.88;;;11.13;;
26375;SDS011;30544;42.196;24.336;2023-04-15T05:20:05;19.48;;;8.45;;
26375;SDS011;30544;42.196;24.336;2023-04-15T05:22:33;19.02;;;7.93;;
26375;SDS011;30544;42.196;24.336;2023-04-15T05:25:00;14.80;;;8.60;;
26375;SDS011;30544;42.196;24.336;2023-04-15T05:27:28;14.07;;;7.13;;
26375;SDS011;30544;42.196;24.336;2023-04-15T05:29:55;17.15;;;7.40;;
26375;SDS011;30544;42.196;24.336;2023-04-15T05:32:22;13.88;;;6.25;;
26375;SDS011;30544;42.196;24.336;2023-04-15T05:34:49;14.55;;;6.15;;
26375;SDS011;30544;42.196;24.336;2023-04-15T05:37:16;18.10;;;7.68;;
26375;SDS011;30544;42.196;24.336;2023-04-15T05:39:44;13.25;;;6.93;;
26375;SDS011;30544;42.196;24.336;2023-04-15T05:42:12;10.07;;;5.88;;
26375;SDS011;30544;42.196;24.336;2023-04-15T05:44:40;12.52;;;6.70;;
26375;SDS011;30544;42.196;24.336;2023-04-15T05:47:07;17.65;;;6.47;;
26375;SDS011;30544;42.196;24.336;2023-04-15T05:49:35;64.57;;;16.25;;
26375;SDS011;30544;42.196;24.336;2023-04-15T05:52:01;12.80;;;6.50;;
26375;SDS011;30544;42.196;24.336;2023-04-15T05:54:31;11.80;;;6.35;;
26375;SDS011;30544;42.196;24.336;2023-04-15T05:56:58;13.25;;;6.53;;
26375;SDS011;30544;42.196;24.336;2023-04-15T05:59:25;15.50;;;6.55;;
26375;SDS011;30544;42.196;24.336;2023-04-15T06:01:53;15.30;;;6.70;;
26375;SDS011;30544;42.196;24.336;2023-04-15T06:04:21;11.38;;;5.57;;
26375;SDS011;30544;42.196;24.336;2023-04-15T06:06:48;13.73;;;5.78;;
26375;SDS011;30544;42.196;24.336;2023-04-15T06:09:14;9.32;;;4.90;;
26375;SDS011;30544;42.196;24.336;2023-04-15T06:11:41;11.38;;;5.70;;
26375;SDS011;30544;42.196;24.336;2023-04-15T06:14:08;8.85;;;5.20;;
26375;SDS011;30544;42.196;24.336;2023-04-15T06:16:35;11.05;;;4.85;;
26375;SDS011;30544;42.196;24.336;2023-04-15T06:19:03;10.35;;;5.43;;
26375;SDS011;30544;42.196;24.336;2023-04-15T06:21:30;12.20;;;4.75;;
26375;SDS011;30544;42.196;24.336;2023-04-15T06:23:57;18.55;;;5.65;;
26375;SDS011;30544;42.196;24.336;2023-04-15T06:26:25;11.43;;;5.15;;
26375;SDS011;30544;42.196;24.336;2023-04-15T06:28:52;11.60;;;5.55;;
26375;SDS011;30544;42.196;24.336;2023-04-15T06:31:19;12.18;;;6.05;;
26375;SDS011;30544;42.196;24.336;2023-04-15T06:33:46;14.50;;;5.60;;
26375;SDS011;30544;42.196;24.336;2023-04-15T06:36:14;17.70;;;6.03;;
26375;SDS011;30544;42.196;24.336;2023-04-15T06:38:41;12.40;;;7.00;;
26375;SDS011;30544;42.196;24.336;2023-04-15T06:41:08;18.67;;;7.20;;
26375;SDS011;30544;42.196;24.336;2023-04-15T06:43:35;15.85;;;7.63;;
26375;SDS011;30544;42.196;24.336;2023-04-15T06:46:01;18.30;;;8.15;;
26375;SDS011;30544;42.196;24.336;2023-04-15T06:48:28;18.60;;;9.38;;
26375;SDS011;30544;42.196;24.336;2023-04-15T06:50:55;13.80;;;8.18;;
26375;SDS011;30544;42.196;24.336;2023-04-15T06:53:23;15.95;;;7.15;;
26375;SDS011;30544;42.196;24.336;2023-04-15T06:55:51;18.67;;;7.97;;
26375;SDS011;30544;42.196;24.336;2023-04-15T06:58:17;16.23;;;7.82;;
26375;SDS011;30544;42.196;24.336;2023-04-15T07:00:44;14.23;;;7.88;;
26375;SDS011;30544;42.196;24.336;2023-04-15T07:03:12;14.82;;;7.68;;
26375;SDS011;30544;42.196;24.336;2023-04-15T07:05:39;15.05;;;7.80;;
26375;SDS011;30544;42.196;24.336;2023-04-15T07:08:06;18.10;;;8.68;;
26375;SDS011;30544;42.196;24.336;2023-04-15T07:10:34;22.75;;;8.45;;
26375;SDS011;30544;42.196;24.336;2023-04-15T07:13:01;16.70;;;9.35;;
26375;SDS011;30544;42.196;24.336;2023-04-15T07:15:27;21.55;;;10.85;;
26375;SDS011;30544;42.196;24.336;2023-04-15T07:17:54;34.47;;;18.13;;
26375;SDS011;30544;42.196;24.336;2023-04-15T07:20:21;21.60;;;10.60;;
26375;SDS011;30544;42.196;24.336;2023-04-15T07:22:48;24.23;;;10.95;;
26375;SDS011;30544;42.196;24.336;2023-04-15T07:25:15;26.90;;;13.25;;
26375;SDS011;30544;42.196;24.336;2023-04-15T07:27:43;22.13;;;11.00;;
26375;SDS011;30544;42.196;24.336;2023-04-15T07:30:10;18.77;;;11.25;;
26375;SDS011;30544;42.196;24.336;2023-04-15T07:32:38;53.63;;;24.52;;
26375;SDS011;30544;42.196;24.336;2023-04-15T07:35:05;22.77;;;12.00;;
26375;SDS011;30544;42.196;24.336;2023-04-15T07:37:32;17.63;;;10.50;;
26375;SDS011;30544;42.196;24.336;2023-04-15T07:39:59;26.85;;;11.73;;
26375;SDS011;30544;42.196;24.336;2023-04-15T07:42:26;17.17;;;10.48;;
26375;SDS011;30544;42.196;24.336;2023-04-15T07:44:55;22.45;;;11.38;;
26375;SDS011;30544;42.196;24.336;2023-04-15T07:47:22;23.13;;;11.45;;
26375;SDS011;30544;42.196;24.336;2023-04-15T07:49:48;16.15;;;10.20;;
26375;SDS011;30544;42.196;24.336;2023-04-15T07:52:16;15.45;;;9.30;;
26375;SDS011;30544;42.196;24.336;2023-04-15T07:54:43;23.15;;;12.85;;
26375;SDS011;30544;42.196;24.336;2023-04-15T07:57:10;22.58;;;10.02;;
26375;SDS011;30544;42.196;24.336;2023-04-15T07:59:37;21.50;;;9.65;;
26375;SDS011;30544;42.196;24.336;2023-04-15T08:02:05;16.13;;;9.45;;
26375;SDS011;30544;42.196;24.336;2023-04-15T08:04:32;15.38;;;8.82;;
26375;SDS011;30544;42.196;24.336;2023-04-15T08:06:59;18.85;;;9.43;;
26375;SDS011;30544;42.196;24.336;2023-04-15T08:09:26;16.83;;;10.00;;
26375;SDS011;30544;42.196;24.336;2023-04-15T08:11:53;21.00;;;9.57;;
26375;SDS011;30544;42.196;24.336;2023-04-15T08:14:20;17.23;;;9.63;;
26375;SDS011;30544;42.196;24.336;2023-04-15T08:16:48;15.15;;;10.68;;
26375;SDS011;30544;42.196;24.336;2023-04-15T08:19:16;20.67;;;11.43;;
26375;SDS011;30544;42.196;24.336;2023-04-15T08:21:43;22.83;;;13.02;;
26375;SDS011;30544;42.196;24.336;2023-04-15T08:24:10;25.73;;;13.00;;
26375;SDS011;30544;42.196;24.336;2023-04-15T08:26:38;21.88;;;13.75;;
26375;SDS011;30544;42.196;24.336;2023-04-15T08:29:06;22.13;;;12.57;;
26375;SDS011;30544;42.196;24.336;2023-04-15T08:31:33;18.13;;;10.80;;
26375;SDS011;30544;42.196;24.336;2023-04-15T08:34:00;24.67;;;13.80;;
26375;SDS011;30544;42.196;24.336;2023-04-15T08:36:28;19.73;;;12.90;;
26375;SDS011;30544;42.196;24.336;2023-04-15T08:38:54;16.83;;;11.07;;
26375;SDS011;30544;42.196;24.336;2023-04-15T08:41:22;16.75;;;10.93;;
26375;SDS011;30544;42.196;24.336;2023-04-15T08:43:53;16.65;;;10.50;;
26375;SDS011;30544;42.196;24.336;2023-04-15T08:46:23;19.37;;;11.33;;
26375;SDS011;30544;42.196;24.336;2023-04-15T08:48:50;19.98;;;11.13;;
26375;SDS011;30544;42.196;24.336;2023-04-15T08:51:21;15.90;;;10.40;;
26375;SDS011;30544;42.196;24.336;2023-04-15T08:53:50;16.25;;;10.32;;
26375;SDS011;30544;42.196;24.336;2023-04-15T08:56:17;13.43;;;8.35;;
26375;SDS011;30544;42.196;24.336;2023-04-15T08:58:44;18.27;;;9.10;;
26375;SDS011;30544;42.196;24.336;2023-04-15T09:01:12;19.35;;;9.73;;
26375;SDS011;30544;42.196;24.336;2023-04-15T09:03:40;16.20;;;9.95;;
26375;SDS011;30544;42.196;24.336;2023-04-15T09:06:07;12.55;;;8.35;;
26375;SDS011;30544;42.196;24.336;2023-04-15T09:08:34;14.48;;;7.07;;
26375;SDS011;30544;42.196;24.336;2023-04-15T09:11:02;13.75;;;8.48;;
26375;SDS011;30544;42.196;24.336;2023-04-15T09:13:29;12.88;;;8.15;;
26375;SDS011;30544;42.196;24.336;2023-04-15T09:15:56;22.70;;;9.52;;
26375;SDS011;30544;42.196;24.336;2023-04-15T09:18:26;16.08;;;8.43;;
26375;SDS011;30544;42.196;24.336;2023-04-15T09:20:54;23.05;;;8.05;;
26375;SDS011;30544;42.196;24.336;2023-04-15T09:23:22;12.00;;;8.05;;
26375;SDS011;30544;42.196;24.336;2023-04-15T09:25:48;11.80;;;5.65;;
26375;SDS011;30544;42.196;24.336;2023-04-15T09:28:23;10.73;;;6.35;;
26375;SDS011;30544;42.196;24.336;2023-04-15T09:30:54;14.80;;;6.80;;
26375;SDS011;30544;42.196;24.336;2023-04-15T09:33:21;11.65;;;6.68;;
26375;SDS011;30544;42.196;24.336;2023-04-15T09:35:58;10.63;;;5.85;;
26375;SDS011;30544;42.196;24.336;2023-04-15T09:38:26;11.85;;;5.30;;
26375;SDS011;30544;42.196;24.336;2023-04-15T09:40:53;12.50;;;5.60;;
26375;SDS011;30544;42.196;24.336;2023-04-15T09:43:20;9.80;;;5.55;;
26375;SDS011;30544;42.196;24.336;2023-04-15T09:45:49;14.57;;;5.20;;
26375;SDS011;30544;42.196;24.336;2023-04-15T09:48:18;14.35;;;4.25;;
26375;SDS011;30544;42.196;24.336;2023-04-15T09:50:46;7.93;;;4.30;;
26375;SDS011;30544;42.196;24.336;2023-04-15T09:53:17;13.43;;;5.25;;
26375;SDS011;30544;42.196;24.336;2023-04-15T09:55:45;26.95;;;10.88;;
26375;SDS011;30544;42.196;24.336;2023-04-15T09:58:18;13.77;;;5.18;;
26375;SDS011;30544;42.196;24.336;2023-04-15T10:00:46;9.48;;;3.53;;
26375;SDS011;30544;42.196;24.336;2023-04-15T10:03:16;21.25;;;7.43;;
26375;SDS011;30544;42.196;24.336;2023-04-15T10:05:45;7.85;;;3.33;;
26375;SDS011;30544;42.196;24.336;2023-04-15T10:08:13;9.23;;;3.70;;
26375;SDS011;30544;42.196;24.336;2023-04-15T10:10:43;8.98;;;3.58;;
26375;SDS011;30544;42.196;24.336;2023-04-15T10:13:11;7.95;;;3.40;;
26375;SDS011;30544;42.196;24.336;2023-04-15T10:15:39;10.70;;;4.03;;
26375;SDS011;30544;42.196;24.336;2023-04-15T10:18:09;9.60;;;3.80;;
26375;SDS011;30544;42.196;24.336;2023-04-15T10:20:39;11.18;;;3.80;;
26375;SDS011;30544;42.196;24.336;2023-04-15T10:23:07;9.93;;;4.00;;
26375;SDS011;30544;42.196;24.336;2023-04-15T10:25:35;10.52;;;3.88;;
26375;SDS011;30544;42.196;24.336;2023-04-15T10:28:02;13.77;;;6.93;;
26375;SDS011;30544;42.196;24.336;2023-04-15T10:30:31;10.18;;;3.28;;
26375;SDS011;30544;42.196;24.336;2023-04-15T10:32:59;11.70;;;3.85;;
26375;SDS011;30544;42.196;24.336;2023-04-15T10:35:27;8.38;;;3.20;;
26375;SDS011;30544;42.196;24.336;2023-04-15T10:37:56;9.15;;;3.25;;
26375;SDS011;30544;42.196;24.336;2023-04-15T10:40:24;8.70;;;3.47;;
26375;SDS011;30544;42.196;24.336;2023-04-15T10:42:52;5.35;;;2.90;;
26375;SDS011;30544;42.196;24.336;2023-04-15T10:45:20;6.88;;;3.05;;
26375;SDS011;30544;42.196;24.336;2023-04-15T10:47:50;6.72;;;3.17;;
26375;SDS011;30544;42.196;24.336;2023-04-15T10:50:18;6.38;;;3.00;;
26375;SDS011;30544;42.196;24.336;2023-04-15T10:52:45;12.32;;;3.40;;
26375;SDS011;30544;42.196;24.336;2023-04-15T10:55:19;7.10;;;3.40;;
26375;SDS011;30544;42.196;24.336;2023-04-15T10:57:50;6.90;;;3.20;;
26375;SDS011;30544;42.196;24.336;2023-04-15T11:00:18;9.15;;;3.78;;
26375;SDS011;30544;42.196;24.336;2023-04-15T11:02:46;9.02;;;3.30;;
26375;SDS011;30544;42.196;24.336;2023-04-15T11:05:17;7.50;;;3.25;;
26375;SDS011;30544;42.196;24.336;2023-04-15T11:07:48;43.25;;;16.65;;
26375;SDS011;30544;42.196;24.336;2023-04-15T11:13:22;10.90;;;3.15;;
26375;SDS011;30544;42.196;24.336;2023-04-15T11:15:57;11.50;;;3.05;;
26375;SDS011;30544;42.196;24.336;2023-04-15T11:18:26;7.20;;;3.40;;
26375;SDS011;30544;42.196;24.336;2023-04-15T11:20:56;12.43;;;3.28;;
26375;SDS011;30544;42.196;24.336;2023-04-15T11:23:29;14.55;;;6.30;;
26375;SDS011;30544;42.196;24.336;2023-04-15T11:25:59;6.55;;;3.20;;
26375;SDS011;30544;42.196;24.336;2023-04-15T11:28:29;8.82;;;3.20;;
26375;SDS011;30544;42.196;24.336;2023-04-15T11:30:57;9.57;;;2.78;;
26375;SDS011;30544;42.196;24.336;2023-04-15T11:33:24;7.68;;;2.83;;
26375;SDS011;30544;42.196;24.336;2023-04-15T11:35:51;6.63;;;3.05;;
26375;SDS011;30544;42.196;24.336;2023-04-15T11:38:19;7.10;;;3.30;;
26375;SDS011;30544;42.196;24.336;2023-04-15T11:40:46;6.43;;;3.28;;
26375;SDS011;30544;42.196;24.336;2023-04-15T11:43:17;8.48;;;3.05;;
26375;SDS011;30544;42.196;24.336;2023-04-15T11:45:49;8.70;;;3.28;;
26375;SDS011;30544;42.196;24.336;2023-04-15T11:48:17;9.50;;;3.35;;
26375;SDS011;30544;42.196;24.336;2023-04-15T11:50:45;9.35;;;3.47;;
26375;SDS011;30544;42.196;24.336;2023-04-15T11:53:12;7.97;;;4.00;;
26375;SDS011;30544;42.196;24.336;2023-04-15T11:55:40;13.35;;;2.88;;
26375;SDS011;30544;42.196;24.336;2023-04-15T11:58:09;5.70;;;2.65;;
26375;SDS011;30544;42.196;24.336;2023-04-15T12:00:38;7.93;;;2.90;;
26375;SDS011;30544;42.196;24.336;2023-04-15T12:03:22;8.00;;;2.58;;
26375;SDS011;30544;42.196;24.336;2023-04-15T12:06:06;9.27;;;2.53;;
26375;SDS011;30544;42.196;24.336;2023-04-15T12:11:42;5.43;;;2.50;;
26375;SDS011;30544;42.196;24.336;2023-04-15T12:14:20;6.68;;;2.70;;
26375;SDS011;30544;42.196;24.336;2023-04-15T12:16:52;4.43;;;2.05;;
26375;SDS011;30544;42.196;24.336;2023-04-15T12:19:23;9.13;;;2.40;;
26375;SDS011;30544;42.196;24.336;2023-04-15T12:21:52;6.32;;;2.22;;
26375;SDS011;30544;42.196;24.336;2023-04-15T12:24:23;6.40;;;2.15;;
26375;SDS011;30544;42.196;24.336;2023-04-15T12:26:51;6.63;;;2.60;;
26375;SDS011;30544;42.196;24.336;2023-04-15T12:29:19;7.22;;;2.05;;
26375;SDS011;30544;42.196;24.336;2023-04-15T12:31:52;7.70;;;2.35;;
26375;SDS011;30544;42.196;24.336;2023-04-15T12:34:25;13.10;;;2.83;;
26375;SDS011;30544;42.196;24.336;2023-04-15T12:36:53;10.52;;;3.15;;
26375;SDS011;30544;42.196;24.336;2023-04-15T12:39:21;9.82;;;2.40;;
26375;SDS011;30544;42.196;24.336;2023-04-15T12:41:48;10.18;;;2.50;;
26375;SDS011;30544;42.196;24.336;2023-04-15T12:44:15;8.90;;;2.50;;
26375;SDS011;30544;42.196;24.336;2023-04-15T12:46:41;5.35;;;2.30;;
26375;SDS011;30544;42.196;24.336;2023-04-15T12:49:10;11.32;;;4.05;;
26375;SDS011;30544;42.196;24.336;2023-04-15T12:51:38;8.68;;;2.63;;
26375;SDS011;30544;42.196;24.336;2023-04-15T12:54:05;8.38;;;2.35;;
26375;SDS011;30544;42.196;24.336;2023-04-15T12:56:32;4.35;;;2.42;;
26375;SDS011;30544;42.196;24.336;2023-04-15T12:58:58;6.88;;;2.90;;
26375;SDS011;30544;42.196;24.336;2023-04-15T13:01:25;4.72;;;2.60;;
26375;SDS011;30544;42.196;24.336;2023-04-15T13:03:52;6.25;;;2.70;;
26375;SDS011;30544;42.196;24.336;2023-04-15T13:06:20;6.18;;;2.97;;
26375;SDS011;30544;42.196;24.336;2023-04-15T13:08:48;10.07;;;4.03;;
26375;SDS011;30544;42.196;24.336;2023-04-15T13:11:15;7.68;;;3.97;;
26375;SDS011;30544;42.196;24.336;2023-04-15T13:13:42;10.43;;;4.60;;
26375;SDS011;30544;42.196;24.336;2023-04-15T13:16:08;10.07;;;4.45;;
26375;SDS011;30544;42.196;24.336;2023-04-15T13:18:35;13.05;;;4.85;;
26375;SDS011;30544;42.196;24.336;2023-04-15T13:21:02;8.07;;;4.43;;
26375;SDS011;30544;42.196;24.336;2023-04-15T13:23:32;8.68;;;4.30;;
26375;SDS011;30544;42.196;24.336;2023-04-15T13:25:59;7.53;;;4.47;;
26375;SDS011;30544;42.196;24.336;2023-04-15T13:28:26;8.68;;;4.53;;
26375;SDS011;30544;42.196;24.336;2023-04-15T13:30:53;12.82;;;5.95;;
26375;SDS011;30544;42.196;24.336;2023-04-15T13:33:19;8.48;;;4.80;;
26375;SDS011;30544;42.196;24.336;2023-04-15T13:35:46;11.80;;;5.70;;
26375;SDS011;30544;42.196;24.336;2023-04-15T13:38:13;10.68;;;4.70;;
26375;SDS011;30544;42.196;24.336;2023-04-15T13:40:41;7.82;;;4.40;;
26375;SDS011;30544;42.196;24.336;2023-04-15T13:43:08;14.77;;;5.15;;
26375;SDS011;30544;42.196;24.336;2023-04-15T13:45:35;12.10;;;4.97;;
26375;SDS011;30544;42.196;24.336;2023-04-15T13:48:05;15.02;;;4.90;;
26375;SDS011;30544;42.196;24.336;2023-04-15T13:50:32;8.60;;;4.45;;
26375;SDS011;30544;42.196;24.336;2023-04-15T13:52:59;11.75;;;4.90;;
26375;SDS011;30544;42.196;24.336;2023-04-15T13:55:25;13.07;;;4.60;;
26375;SDS011;30544;42.196;24.336;2023-04-15T13:57:54;6.57;;;3.97;;
26375;SDS011;30544;42.196;24.336;2023-04-15T14:00:21;11.07;;;4.00;;
26375;SDS011;30544;42.196;24.336;2023-04-15T14:02:48;11.07;;;4.45;;
26375;SDS011;30544;42.196;24.336;2023-04-15T14:05:15;9.05;;;3.90;;
26375;SDS011;30544;42.196;24.336;2023-04-15T14:07:42;7.45;;;4.20;;
26375;SDS011;30544;42.196;24.336;2023-04-15T14:10:09;13.13;;;4.15;;
26375;SDS011;30544;42.196;24.336;2023-04-15T14:12:35;6.25;;;3.80;;
26375;SDS011;30544;42.196;24.336;2023-04-15T14:15:04;11.05;;;4.30;;
26375;SDS011;30544;42.196;24.336;2023-04-15T14:17:32;11.70;;;3.80;;
26375;SDS011;30544;42.196;24.336;2023-04-15T14:19:59;10.98;;;4.68;;
26375;SDS011;30544;42.196;24.336;2023-04-15T14:22:25;9.27;;;4.43;;
26375;SDS011;30544;42.196;24.336;2023-04-15T14:24:52;10.70;;;3.80;;
26375;SDS011;30544;42.196;24.336;2023-04-15T14:27:19;8.55;;;3.13;;
26375;SDS011;30544;42.196;24.336;2023-04-15T14:29:46;6.82;;;3.25;;
26375;SDS011;30544;42.196;24.336;2023-04-15T14:32:19;10.15;;;4.30;;
26375;SDS011;30544;42.196;24.336;2023-04-15T14:34:45;9.43;;;3.17;;